Time;durP1;ratioP1;P1;durP2;ratioP2;P2;SDS_P1;SDS_P2;PMS_P1;PMS_P2;Temp;Humidity;BMP_temperature;BMP_pressure;BME280_temperature;BME280_humidity;BME280_pressure;Samples;Min_cycle;Max_cycle;Signal;HPM_P1;HPM_P2
2024/01/09 00:00:05;;;;;;;0.80;0.60;;;;;;;-9.11;96.91;103196.28;4904971;29;20209;-65
2024/01/09 00:02:36;;;;;;;1.00;0.75;;;;;;;-9.13;97.41;103198.06;4903170;29;20199;-65
2024/01/09 00:05:05;;;;;;;1.88;1.77;;;;;;;-9.14;97.14;103195.44;4895078;29;20221;-66
2024/01/09 00:07:34;;;;;;;0.80;0.63;;;;;;;-9.21;96.58;103196.44;4898700;29;20661;-65
2024/01/09 00:10:03;;;;;;;2.22;1.92;;;;;;;-9.28;97.15;103199.13;4899254;29;20190;-67
2024/01/09 00:12:31;;;;;;;1.90;1.80;;;;;;;-9.30;97.33;103194.78;4893559;29;20575;-66
2024/01/09 00:15:00;;;;;;;7.82;2.80;;;;;;;-9.23;97.73;103199.94;4882264;29;20672;-67
2024/01/09 00:17:39;;;;;;;1.33;1.23;;;;;;;-9.33;97.33;103203.56;4898346;29;20567;-66
2024/01/09 00:20:09;;;;;;;0.80;0.75;;;;;;;-9.18;98.67;103204.25;4892033;29;20344;-66
2024/01/09 00:22:38;;;;;;;1.13;1.02;;;;;;;-9.29;97.77;103202.63;4881990;29;20633;-68
2024/01/09 00:25:10;;;;;;;2.25;2.15;;;;;;;-9.39;98.16;103208.88;4906215;29;20194;-65
2024/01/09 00:27:38;;;;;;;3.33;2.65;;;;;;;-9.38;98.45;103207.13;4887671;29;20254;-65
2024/01/09 00:30:09;;;;;;;0.80;0.57;;;;;;;-9.36;98.70;103216.72;4892700;29;20186;-64
2024/01/09 00:32:39;;;;;;;0.88;0.88;;;;;;;-9.41;98.40;103207.16;4895836;29;20254;-68
2024/01/09 00:35:09;;;;;;;0.80;0.65;;;;;;;-9.35;98.33;103212.34;4899144;29;20210;-65
2024/01/09 00:37:37;;;;;;;5.22;1.80;;;;;;;-9.44;98.23;103209.84;4898663;29;20249;-65
2024/01/09 00:40:08;;;;;;;0.80;0.57;;;;;;;-9.48;98.29;103208.97;4907698;29;20301;-65
2024/01/09 00:42:36;;;;;;;5.72;3.33;;;;;;;-9.47;98.42;103210.72;4894660;29;20250;-66
2024/01/09 00:45:07;;;;;;;1.08;0.98;;;;;;;-9.42;98.80;103208.91;4901718;29;20205;-64
2024/01/09 00:47:36;;;;;;;1.98;1.88;;;;;;;-9.45;98.59;103206.34;4898595;29;20221;-65
2024/01/09 00:50:07;;;;;;;0.85;0.85;;;;;;;-9.55;98.23;103203.84;4899284;29;20269;-63
2024/01/09 00:52:36;;;;;;;1.50;1.40;;;;;;;-9.53;98.97;103202.03;4894414;29;20248;-67
2024/01/09 00:55:06;;;;;;;0.80;0.50;;;;;;;-9.56;99.21;103200.34;4898539;29;20194;-66
2024/01/09 00:57:35;;;;;;;0.80;0.60;;;;;;;-9.50;98.29;103202.91;4906117;29;20690;-65
2024/01/09 01:00:05;;;;;;;1.70;1.60;;;;;;;-9.48;98.41;103206.34;4893960;29;20203;-65
2024/01/09 01:02:36;;;;;;;2.85;2.45;;;;;;;-9.36;97.89;103200.09;4894565;29;20213;-66
2024/01/09 01:05:07;;;;;;;2.47;1.85;;;;;;;-9.45;97.88;103208.97;4896890;29;20194;-66
2024/01/09 01:07:36;;;;;;;1.00;0.90;;;;;;;-9.45;98.04;103210.72;4896489;29;20250;-66
2024/01/09 01:10:05;;;;;;;0.90;0.70;;;;;;;-9.47;97.62;103204.59;4889033;29;20186;-66
2024/01/09 01:12:34;;;;;;;3.60;1.65;;;;;;;-9.40;97.96;103203.66;4890635;29;20198;-66
2024/01/09 01:15:03;;;;;;;0.80;0.60;;;;;;;-9.36;97.60;103211.47;4869781;29;20703;-65
2024/01/09 01:17:31;;;;;;;0.80;0.60;;;;;;;-9.41;97.63;103197.53;4899684;29;20249;-65
2024/01/09 01:20:00;;;;;;;2.03;1.83;;;;;;;-9.44;97.25;103207.22;4897183;29;20214;-65
2024/01/09 01:22:30;;;;;;;1.55;1.45;;;;;;;-9.49;97.81;103204.66;4896612;29;20198;-66
2024/01/09 01:24:59;;;;;;;0.80;0.50;;;;;;;-9.45;97.66;103201.09;4912309;29;20205;-63
2024/01/09 01:27:28;;;;;;;1.98;1.88;;;;;;;-9.51;97.69;103197.66;4902822;29;20202;-65
2024/01/09 01:29:57;;;;;;;0.80;0.60;;;;;;;-9.54;97.41;103203.84;4902852;29;20226;-65
2024/01/09 01:32:26;;;;;;;0.90;0.70;;;;;;;-9.53;97.58;103200.31;4903541;29;20564;-65
2024/01/09 01:34:55;;;;;;;0.80;0.60;;;;;;;-9.49;97.83;103204.66;4913483;29;20201;-65
2024/01/09 01:37:23;;;;;;;3.42;3.28;;;;;;;-9.49;97.51;103204.66;4916443;29;20684;-65
2024/01/09 01:39:54;;;;;;;4.80;2.65;;;;;;;-9.55;97.43;103204.72;4911302;29;20217;-65
2024/01/09 01:42:22;;;;;;;0.98;0.88;;;;;;;-9.53;97.29;103202.03;4902883;29;20198;-64
2024/01/09 01:44:51;;;;;;;2.53;2.33;;;;;;;-9.52;97.25;103207.28;4901342;29;20561;-65
2024/01/09 01:47:20;;;;;;;0.80;0.50;;;;;;;-9.55;97.25;103204.72;4907926;29;20193;-66
2024/01/09 01:49:49;;;;;;;1.00;0.90;;;;;;;-9.45;97.28;103201.09;4891800;29;20245;-66
2024/01/09 01:52:19;;;;;;;3.25;1.83;;;;;;;-9.42;96.42;103208.91;4895728;29;20566;-65
2024/01/09 01:54:48;;;;;;;0.80;0.50;;;;;;;-9.42;96.25;103208.03;4899133;29;20292;-65
2024/01/09 01:57:18;;;;;;;10.93;3.28;;;;;;;-9.43;96.31;103199.31;4899224;29;20202;-65
2024/01/09 01:59:47;;;;;;;0.80;0.65;;;;;;;-9.56;96.61;103205.59;4892558;29;20207;-67
2024/01/09 02:02:17;;;;;;;1.75;1.65;;;;;;;-9.46;96.55;103204.59;4882526;29;20670;-65
2024/01/09 02:04:45;;;;;;;4.03;3.72;;;;;;;-9.54;97.11;103201.22;4883172;29;20199;-65
2024/01/09 02:07:14;;;;;;;0.80;0.57;;;;;;;-9.57;96.33;103203.84;4887362;29;20230;-66
2024/01/09 02:09:44;;;;;;;2.45;2.25;;;;;;;-9.67;97.27;103203.09;4868978;29;20249;-64
2024/01/09 02:12:13;;;;;;;2.58;2.47;;;;;;;-9.65;96.80;103203.09;4884188;29;20201;-64
2024/01/09 02:14:44;;;;;;;2.70;2.50;;;;;;;-9.74;97.37;103209.28;4896543;29;20282;-65
2024/01/09 02:17:13;;;;;;;3.50;1.50;;;;;;;-9.72;97.72;103206.63;4879277;29;20770;-65
2024/01/09 02:19:42;;;;;;;1.20;1.10;;;;;;;-9.54;97.52;103210.81;4895910;29;20205;-64
2024/01/09 02:22:12;;;;;;;1.00;0.90;;;;;;;-9.67;97.50;103200.47;4895308;29;20559;-64
2024/01/09 02:24:41;;;;;;;5.47;1.73;;;;;;;-9.63;96.76;103196.03;4882098;29;20223;-64
2024/01/09 02:27:19;;;;;;;0.80;0.50;;;;;;;-9.63;96.67;103193.44;4886893;29;20227;-65
2024/01/09 02:29:53;;;;;;;0.85;0.85;;;;;;;-9.66;95.97;103198.72;4893843;29;20319;-66
2024/01/09 02:32:22;;;;;;;1.35;1.25;;;;;;;-9.63;95.71;103205.69;4876200;29;20222;-66
2024/01/09 02:34:53;;;;;;;0.90;0.75;;;;;;;-9.64;96.00;103210.06;4902602;29;20650;-65
2024/01/09 02:37:21;;;;;;;2.40;2.08;;;;;;;-9.55;95.34;103209.09;4907261;29;20690;-66
2024/01/09 02:39:50;;;;;;;0.80;0.50;;;;;;;-9.52;94.91;103215.16;4886930;29;20220;-65
2024/01/09 02:42:19;;;;;;;1.00;0.85;;;;;;;-9.53;95.35;103212.53;4895087;29;20199;-66
2024/01/09 02:44:53;;;;;;;0.80;0.50;;;;;;;-9.56;94.71;103210.84;4889827;29;20677;-65
2024/01/09 02:47:24;;;;;;;0.88;0.75;;;;;;;-9.54;94.98;103209.06;4902825;29;20272;-66
2024/01/09 02:49:53;;;;;;;1.17;1.02;;;;;;;-9.58;94.74;103206.50;4905365;29;20194;-65
2024/01/09 02:52:22;;;;;;;2.45;2.35;;;;;;;-9.64;94.79;103210.06;4905232;29;20603;-65
2024/01/09 02:54:52;;;;;;;0.80;0.77;;;;;;;-9.65;94.83;103208.31;4901938;29;20597;-65
2024/01/09 02:57:21;;;;;;;0.80;0.60;;;;;;;-9.67;94.83;103207.44;4896462;29;20203;-65
2024/01/09 02:59:50;;;;;;;0.88;0.75;;;;;;;-9.64;94.47;103204.81;4898192;29;20190;-62
2024/01/09 03:02:19;;;;;;;0.80;0.75;;;;;;;-9.50;94.12;103202.91;4895767;29;20202;-66
2024/01/09 03:04:49;;;;;;;1.10;1.00;;;;;;;-9.56;94.26;103207.34;4866405;29;20210;-66
2024/01/09 03:07:18;;;;;;;0.80;0.70;;;;;;;-9.70;94.13;103215.38;4893074;29;20613;-65
2024/01/09 03:09:48;;;;;;;0.80;0.60;;;;;;;-9.80;94.77;103208.47;4895837;29;20567;-65
2024/01/09 03:12:16;;;;;;;1.45;1.35;;;;;;;-9.67;95.04;103204.84;4875227;29;20206;-65
2024/01/09 03:14:46;;;;;;;0.80;0.60;;;;;;;-9.75;95.91;103219.78;4893324;29;20657;-66
2024/01/09 03:17:15;;;;;;;0.95;0.82;;;;;;;-9.78;96.09;103217.22;4899190;29;20606;-65
2024/01/09 03:19:44;;;;;;;2.47;2.35;;;;;;;-9.86;95.91;103211.16;4900565;29;20282;-65
2024/01/09 03:22:14;;;;;;;1.30;1.20;;;;;;;-9.91;96.32;103216.44;4891075;29;20205;-64
2024/01/09 03:24:43;;;;;;;1.15;1.05;;;;;;;-9.85;96.23;103223.38;4893346;29;20194;-65
2024/01/09 03:27:12;;;;;;;0.80;0.50;;;;;;;-9.91;96.67;103205.97;4890262;29;20241;-65
2024/01/09 03:29:41;;;;;;;3.50;3.35;;;;;;;-9.86;95.87;103208.53;4894573;29;20198;-64
2024/01/09 03:32:10;;;;;;;0.98;0.88;;;;;;;-9.92;96.75;103213.88;4885519;29;20191;-65
2024/01/09 03:34:40;;;;;;;0.80;0.60;;;;;;;-9.95;96.45;103213.88;4899514;29;20206;-62
2024/01/09 03:37:13;;;;;;;3.63;2.15;;;;;;;-9.86;96.77;103224.25;4900564;29;20226;-64
2024/01/09 03:39:46;;;;;;;1.27;1.17;;;;;;;-9.93;96.37;103217.38;4893841;29;20210;-66
2024/01/09 03:42:15;;;;;;;0.90;0.80;;;;;;;-9.92;96.38;103208.63;4898301;29;20223;-65
2024/01/09 03:44:44;;;;;;;0.80;0.50;;;;;;;-9.80;96.22;103200.63;4901171;29;20661;-67
2024/01/09 03:47:14;;;;;;;1.23;1.00;;;;;;;-9.92;96.53;103206.00;4897418;29;20210;-64
2024/01/09 03:49:42;;;;;;;1.70;1.60;;;;;;;-9.98;97.07;103209.56;4901180;29;20189;-65
2024/01/09 03:52:13;;;;;;;0.90;0.77;;;;;;;-9.90;97.00;103201.59;4915017;29;20282;-65
2024/01/09 03:54:42;;;;;;;0.90;0.65;;;;;;;-9.92;96.88;103203.38;4895110;29;20308;-64
2024/01/09 03:57:11;;;;;;;0.80;0.60;;;;;;;-9.89;96.59;103195.47;4900326;29;20642;-66
2024/01/09 03:59:41;;;;;;;1.25;1.15;;;;;;;-10.01;96.24;103206.06;4896607;29;20202;-65
2024/01/09 04:02:11;;;;;;;0.80;0.50;;;;;;;-10.09;97.09;103205.28;4889857;29;20207;-67
2024/01/09 04:04:40;;;;;;;1.70;1.60;;;;;;;-10.13;97.20;103209.69;4889002;29;20309;-66
2024/01/09 04:07:09;;;;;;;1.80;1.60;;;;;;;-10.11;97.64;103198.31;4903198;29;20218;-66
2024/01/09 04:09:41;;;;;;;1.73;1.63;;;;;;;-10.15;97.94;103208.81;4902744;29;20757;-65
2024/01/09 04:12:10;;;;;;;3.45;1.90;;;;;;;-10.18;97.80;103214.13;4884402;29;20276;-66
2024/01/09 04:14:39;;;;;;;2.30;2.20;;;;;;;-10.15;98.21;103211.44;4902540;29;20198;-66
2024/01/09 04:17:11;;;;;;;1.25;0.95;;;;;;;-10.11;98.11;103208.78;4900052;29;20213;-66
2024/01/09 04:19:40;;;;;;;0.80;0.60;;;;;;;-10.09;97.81;103208.78;4895087;29;20212;-65
2024/01/09 04:22:10;;;;;;;0.80;0.50;;;;;;;-10.17;98.01;103214.13;4893811;29;20206;-66
2024/01/09 04:24:40;;;;;;;0.80;0.60;;;;;;;-10.22;98.44;103215.94;4895622;29;20233;-65
2024/01/09 04:27:09;;;;;;;4.60;4.22;;;;;;;-10.31;98.68;103210.72;4901490;29;20467;-66
2024/01/09 04:29:38;;;;;;;0.80;0.65;;;;;;;-10.27;98.92;103212.47;4895685;29;20685;-65
2024/01/09 04:32:08;;;;;;;0.80;0.60;;;;;;;-10.29;98.86;103219.47;4870213;29;20536;-65
2024/01/09 04:34:38;;;;;;;2.92;2.78;;;;;;;-10.25;99.04;103212.44;4899054;29;20670;-66
2024/01/09 04:37:07;;;;;;;6.05;4.72;;;;;;;-10.35;98.56;103209.03;4892293;29;20214;-66
2024/01/09 04:39:36;;;;;;;0.80;0.60;;;;;;;-10.35;98.92;103211.66;4911743;29;20210;-65
2024/01/09 04:42:06;;;;;;;0.98;0.85;;;;;;;-10.39;99.04;103207.31;4899158;29;20206;-65
2024/01/09 04:44:35;;;;;;;5.95;1.30;;;;;;;-10.36;99.28;103207.31;4906788;29;20232;-65
2024/01/09 04:47:04;;;;;;;0.80;0.60;;;;;;;-10.32;98.96;103209.03;4882433;29;20219;-65
2024/01/09 04:49:33;;;;;;;4.90;4.50;;;;;;;-10.29;98.87;103214.22;4889899;29;20207;-66
2024/01/09 04:52:02;;;;;;;3.58;3.33;;;;;;;-10.29;99.44;103214.22;4894453;29;20246;-65
2024/01/09 04:54:31;;;;;;;1.02;0.93;;;;;;;-10.34;99.11;103205.53;4892045;29;20191;-66
2024/01/09 04:57:00;;;;;;;1.00;0.90;;;;;;;-10.27;99.08;103212.47;4895841;29;20222;-66
2024/01/09 04:59:31;;;;;;;0.85;0.57;;;;;;;-10.34;98.38;103213.41;4885138;29;20796;-66
2024/01/09 05:02:01;;;;;;;1.42;0.98;;;;;;;-10.41;98.44;103209.09;4891561;29;20198;-66
2024/01/09 05:04:30;;;;;;;1.00;0.90;;;;;;;-10.52;98.99;103213.56;4897143;29;20266;-65
2024/01/09 05:06:59;;;;;;;0.80;0.50;;;;;;;-10.50;98.64;103208.31;4881934;29;20219;-65
2024/01/09 05:09:28;;;;;;;1.98;1.83;;;;;;;-10.62;99.19;103206.66;4889941;29;20194;-65
2024/01/09 05:11:57;;;;;;;1.40;1.30;;;;;;;-10.58;99.51;103205.75;4869937;29;20513;-65
2024/01/09 05:14:26;;;;;;;2.30;2.10;;;;;;;-10.52;99.88;103203.09;4890691;29;20194;-66
2024/01/09 05:16:56;;;;;;;1.70;1.60;;;;;;;-10.55;100.00;103210.09;4899081;29;20228;-65
2024/01/09 05:19:25;;;;;;;0.80;0.50;;;;;;;-10.46;100.00;103210.91;4886699;29;20195;-65
2024/01/09 05:21:54;;;;;;;1.17;1.08;;;;;;;-10.44;100.00;103208.25;4881315;29;20214;-66
2024/01/09 05:24:23;;;;;;;4.63;1.65;;;;;;;-10.37;99.94;103209.94;4898441;29;20197;-66
2024/01/09 05:26:52;;;;;;;0.80;0.52;;;;;;;-10.14;99.85;103208.81;4885949;29;20705;-66
2024/01/09 05:29:22;;;;;;;0.80;0.50;;;;;;;-10.20;98.99;103208.03;4911834;29;20189;-65
2024/01/09 05:31:51;;;;;;;2.13;2.03;;;;;;;-10.19;99.00;103208.03;4892445;29;20203;-65
2024/01/09 05:34:21;;;;;;;0.90;0.73;;;;;;;-10.20;98.83;103214.13;4885495;29;20205;-65
2024/01/09 05:36:50;;;;;;;0.80;0.60;;;;;;;-10.07;98.48;103214.00;4888069;29;20228;-64
2024/01/09 05:39:19;;;;;;;1.13;1.02;;;;;;;-10.17;98.01;103218.50;4908578;29;20213;-68
2024/01/09 05:41:50;;;;;;;0.80;0.65;;;;;;;-10.25;98.45;103215.94;4893256;29;20218;-66
2024/01/09 05:44:19;;;;;;;0.80;0.55;;;;;;;-10.30;98.36;103219.47;4891289;29;20199;-66
2024/01/09 05:46:49;;;;;;;1.58;1.48;;;;;;;-10.24;97.92;103215.06;4892677;29;20219;-65
2024/01/09 05:49:18;;;;;;;0.80;0.68;;;;;;;-10.18;97.54;103215.00;4884537;29;20198;-66
2024/01/09 05:51:49;;;;;;;1.20;1.10;;;;;;;-10.26;97.89;103222.03;4889368;29;20191;-65
2024/01/09 05:54:18;;;;;;;0.80;0.68;;;;;;;-10.29;97.42;103218.59;4896172;29;20190;-67
2024/01/09 05:56:47;;;;;;;1.77;1.67;;;;;;;-10.31;97.66;103220.38;4884891;29;20229;-65
2024/01/09 05:59:16;;;;;;;1.65;1.00;;;;;;;-10.35;97.68;103221.25;4901699;29;20744;-64
2024/01/09 06:01:48;;;;;;;1.65;1.55;;;;;;;-10.32;97.92;103218.63;4899322;29;20220;-66
2024/01/09 06:04:17;;;;;;;0.80;0.60;;;;;;;-10.34;97.49;103221.25;4890120;29;20238;-65
2024/01/09 06:06:48;;;;;;;3.72;3.53;;;;;;;-10.47;97.95;103218.75;4885536;29;20216;-66
2024/01/09 06:09:17;;;;;;;1.55;1.45;;;;;;;-10.52;98.58;103215.28;4891143;29;20194;-65
2024/01/09 06:11:48;;;;;;;1.17;1.08;;;;;;;-10.47;99.04;103211.75;4899966;29;20185;-65
2024/01/09 06:14:17;;;;;;;1.75;1.65;;;;;;;-10.50;98.70;103209.16;4895564;29;20249;-66
2024/01/09 06:16:46;;;;;;;0.90;0.80;;;;;;;-10.45;98.96;103216.97;4897399;29;20228;-64
2024/01/09 06:19:14;;;;;;;0.88;0.75;;;;;;;-10.49;99.07;103208.28;4901501;29;20193;-65
2024/01/09 06:21:44;;;;;;;2.25;2.15;;;;;;;-10.64;98.77;103213.63;4897499;29;20534;-65
2024/01/09 06:27:47;;;;;;;0.80;0.50;;;;;;;-10.55;99.93;103221.41;4896488;29;20205;-65
2024/01/09 06:30:16;;;;;;;1.08;0.98;;;;;;;-10.54;98.86;103215.28;4893552;29;20205;-64
2024/01/09 06:32:45;;;;;;;2.97;2.70;;;;;;;-10.56;99.55;103209.22;4898417;29;20194;-65
2024/01/09 06:35:14;;;;;;;3.00;2.25;;;;;;;-10.62;99.35;103219.72;4890182;29;20224;-65
2024/01/09 06:37:44;;;;;;;3.92;3.78;;;;;;;-10.53;99.56;103222.28;4900729;29;20739;-65
2024/01/09 06:40:13;;;;;;;0.80;0.70;;;;;;;-10.56;99.73;103224.94;4897839;29;20199;-65
2024/01/09 06:42:41;;;;;;;1.25;1.15;;;;;;;-10.61;99.79;103229.31;4877723;29;20215;-65
2024/01/09 06:45:12;;;;;;;1.67;1.58;;;;;;;-10.54;99.89;103231.00;4900482;29;20183;-66
2024/01/09 06:47:41;;;;;;;0.80;0.52;;;;;;;-10.52;99.98;103237.09;4898792;29;20195;-65
2024/01/09 06:50:10;;;;;;;1.20;1.10;;;;;;;-10.55;99.81;103234.50;4896227;29;20200;-65
2024/01/09 06:52:58;;;;;;;1.33;1.17;;;;;;;-10.49;99.58;103236.19;4901105;29;20198;-66
2024/01/09 06:55:27;;;;;;;0.93;0.82;;;;;;;-10.56;99.64;103240.63;4893306;29;20223;-65
2024/01/09 06:57:55;;;;;;;1.90;1.80;;;;;;;-10.42;99.43;103236.16;4897115;29;20269;-65
2024/01/09 07:00:26;;;;;;;1.95;1.80;;;;;;;-10.42;99.26;103233.53;4899476;29;20194;-65
2024/01/09 07:02:55;;;;;;;0.80;0.70;;;;;;;-10.44;99.35;103235.28;4893884;29;20210;-64
2024/01/09 07:05:25;;;;;;;0.80;0.60;;;;;;;-10.43;99.44;103230.94;4899653;29;20590;-65
2024/01/09 07:07:54;;;;;;;7.90;4.43;;;;;;;-10.49;99.47;103234.44;4894029;29;20594;-64
2024/01/09 07:10:22;;;;;;;0.80;0.50;;;;;;;-10.58;99.44;103238.00;4878326;29;20217;-65
2024/01/09 07:12:52;;;;;;;0.80;0.57;;;;;;;-10.55;100.00;103228.41;4902163;29;20202;-65
2024/01/09 07:15:21;;;;;;;4.45;4.20;;;;;;;-10.32;99.53;103236.94;4894643;29;20217;-66
2024/01/09 07:17:51;;;;;;;4.80;4.50;;;;;;;-10.38;99.76;103232.63;4878563;29;20214;-65
2024/01/09 07:20:21;;;;;;;0.80;0.70;;;;;;;-10.50;99.13;103239.72;4882697;29;20198;-65
2024/01/09 07:22:50;;;;;;;1.88;1.30;;;;;;;-10.48;99.39;103251.03;4899483;29;20214;-65
2024/01/09 07:25:32;;;;;;;1.55;1.45;;;;;;;-10.48;99.72;103253.66;4881764;29;20230;-66
2024/01/09 07:28:02;;;;;;;2.13;1.70;;;;;;;-10.45;99.28;103254.47;4899136;29;20203;-66
2024/01/09 07:30:31;;;;;;;0.80;0.52;;;;;;;-10.37;99.37;103257.94;4899568;29;20669;-65
2024/01/09 07:33:01;;;;;;;4.35;3.63;;;;;;;-10.27;99.00;103246.50;4899755;29;20186;-64
2024/01/09 07:35:34;;;;;;;0.77;0.63;;;;;;;-10.25;98.82;103252.59;4898867;29;20297;-64
2024/01/09 07:38:04;;;;;;;1.13;1.02;;;;;;;-10.26;98.10;103244.78;4898426;29;20183;-64
2024/01/09 07:40:33;;;;;;;0.80;0.80;;;;;;;-10.21;97.53;103243.81;4899350;29;20281;-65
2024/01/09 07:43:02;;;;;;;1.60;1.50;;;;;;;-10.21;97.37;103249.06;4899862;29;20233;-66
2024/01/09 07:45:31;;;;;;;2.58;2.38;;;;;;;-10.09;96.94;103253.28;4898057;29;20229;-66
2024/01/09 07:48:03;;;;;;;1.00;0.73;;;;;;;-10.02;96.89;103260.19;4906375;29;20210;-65
2024/01/09 07:50:32;;;;;;;0.80;0.50;;;;;;;-9.99;96.71;103259.31;4900945;29;20733;-65
2024/01/09 07:53:02;;;;;;;0.80;0.50;;;;;;;-9.92;96.82;103266.25;4899637;29;20198;-66
2024/01/09 07:55:36;;;;;;;0.80;0.50;;;;;;;-9.97;96.46;103263.66;4900841;29;20225;-66
2024/01/09 07:58:06;;;;;;;5.47;4.00;;;;;;;-9.88;96.05;103275.81;4895356;29;20198;-66
2024/01/09 08:00:34;;;;;;;0.80;0.60;;;;;;;-9.78;95.65;103274.84;4898196;29;20194;-65
2024/01/09 08:03:07;;;;;;;1.40;1.30;;;;;;;-9.54;95.38;103278.97;4904021;29;20289;-65
2024/01/09 08:05:36;;;;;;;1.35;1.25;;;;;;;-9.52;94.25;103272.81;4893008;29;20270;-65
2024/01/09 08:08:06;;;;;;;2.28;2.17;;;;;;;-9.56;93.49;103279.00;4903535;29;20689;-66
2024/01/09 08:10:35;;;;;;;0.80;0.60;;;;;;;-9.49;93.42;103274.56;4898271;29;20218;-64
2024/01/09 08:13:04;;;;;;;0.80;0.77;;;;;;;-9.50;92.77;103286.78;4899078;29;20183;-66
2024/01/09 08:15:33;;;;;;;3.10;2.88;;;;;;;-9.38;92.51;103280.53;4891807;29;20567;-64
2024/01/09 08:18:02;;;;;;;3.05;1.90;;;;;;;-9.37;92.82;103280.53;4898725;29;20577;-64
2024/01/09 08:20:33;;;;;;;0.80;0.60;;;;;;;-9.43;92.07;103283.22;4898527;29;20229;-65
2024/01/09 08:23:03;;;;;;;4.78;4.20;;;;;;;-9.44;92.53;103276.22;4893240;29;20218;-65
2024/01/09 08:25:32;;;;;;;0.80;0.55;;;;;;;-9.27;91.71;103274.28;4898393;29;20738;-65
2024/01/09 08:28:01;;;;;;;3.47;2.70;;;;;;;-9.33;91.71;103282.22;4898887;29;20550;-65
2024/01/09 08:30:30;;;;;;;2.63;2.42;;;;;;;-9.31;91.26;103284.84;4896374;29;20246;-66
2024/01/09 08:33:01;;;;;;;1.67;1.58;;;;;;;-9.30;91.47;103284.81;4899618;29;20237;-64
2024/01/09 08:35:35;;;;;;;1.25;1.15;;;;;;;-9.26;91.29;103281.28;4900024;29;20222;-66
2024/01/09 08:38:04;;;;;;;1.55;1.45;;;;;;;-9.14;91.44;103275.00;4899778;29;20217;-65
2024/01/09 08:40:34;;;;;;;2.75;2.65;;;;;;;-9.06;91.69;103272.31;4880882;29;20301;-65
2024/01/09 08:43:03;;;;;;;2.38;2.28;;;;;;;-9.04;90.71;103263.50;4899472;29;20213;-65
2024/01/09 08:45:32;;;;;;;4.22;2.90;;;;;;;-9.11;90.57;103274.13;4898258;29;20230;-65
2024/01/09 08:48:01;;;;;;;1.88;1.77;;;;;;;-8.99;90.60;103266.94;4898445;29;20209;-66
2024/01/09 08:50:30;;;;;;;1.45;1.35;;;;;;;-8.97;90.30;103266.94;4895744;29;20202;-64
2024/01/09 08:53:00;;;;;;;2.10;2.00;;;;;;;-8.93;90.54;103274.75;4891503;29;20296;-65
2024/01/09 08:55:29;;;;;;;0.98;0.90;;;;;;;-8.90;90.37;103269.44;4893437;29;20225;-66
2024/01/09 08:58:02;;;;;;;0.80;0.50;;;;;;;-8.94;90.04;103270.38;4884097;29;20288;-65
2024/01/09 09:00:31;;;;;;;1.92;1.80;;;;;;;-8.85;89.85;103265.00;4908498;29;20276;-63
2024/01/09 09:03:00;;;;;;;0.80;0.70;;;;;;;-8.54;89.37;103272.44;4879446;29;20251;-64
2024/01/09 09:05:32;;;;;;;1.60;1.50;;;;;;;-8.61;88.18;103265.53;4895099;29;20222;-65
2024/01/09 09:08:08;;;;;;;2.92;2.72;;;;;;;-8.62;88.37;103267.31;4897951;29;20200;-65
2024/01/09 09:10:38;;;;;;;2.30;2.20;;;;;;;-8.57;88.22;103273.38;4904154;29;20257;-65
2024/01/09 09:13:07;;;;;;;0.95;0.85;;;;;;;-8.44;87.34;103261.78;4897833;29;20194;-65
2024/01/09 09:15:36;;;;;;;1.65;1.48;;;;;;;-8.32;87.16;103272.97;4904768;29;20218;-66
2024/01/09 09:18:08;;;;;;;9.73;3.17;;;;;;;-8.27;86.23;103263.22;4896833;29;20224;-65
2024/01/09 09:20:37;;;;;;;5.72;1.63;;;;;;;-8.18;85.95;103260.50;4889307;29;20194;-65
2024/01/09 09:23:08;;;;;;;0.80;0.75;;;;;;;-8.21;84.67;103266.63;4904808;29;20226;-65
2024/01/09 09:25:37;;;;;;;5.65;3.22;;;;;;;-8.19;84.13;103264.00;4893646;29;20234;-65
2024/01/09 09:28:06;;;;;;;3.80;3.33;;;;;;;-8.12;84.09;103268.25;4898343;29;20196;-65
2024/01/09 09:30:35;;;;;;;5.85;3.38;;;;;;;-8.14;83.75;103267.44;4897466;29;20209;-65
2024/01/09 09:33:05;;;;;;;0.80;0.55;;;;;;;-8.14;82.81;103263.03;4897678;29;20709;-65
2024/01/09 09:35:35;;;;;;;4.47;4.05;;;;;;;-8.10;83.50;103258.59;4890649;29;20226;-65
2024/01/09 09:38:07;;;;;;;0.82;0.70;;;;;;;-7.98;83.37;103261.00;4892320;29;20189;-66
2024/01/09 09:40:37;;;;;;;6.18;2.83;;;;;;;-7.78;82.97;103261.53;4897499;29;20202;-64
2024/01/09 09:43:09;;;;;;;1.73;1.48;;;;;;;-7.78;82.44;103256.25;4895930;29;20237;-65
2024/01/09 09:45:41;;;;;;;4.35;4.05;;;;;;;-7.62;82.71;103252.47;4904507;29;20241;-66
2024/01/09 09:48:12;;;;;;;1.75;1.65;;;;;;;-7.42;81.76;103253.84;4903230;29;20212;-65
2024/01/09 09:50:43;;;;;;;1.50;1.40;;;;;;;-7.49;81.03;103253.09;4893508;29;20254;-65
2024/01/09 09:53:18;;;;;;;1.17;1.08;;;;;;;-7.33;81.65;103259.78;4898534;29;20547;-66
2024/01/09 09:55:47;;;;;;;2.35;2.25;;;;;;;-7.23;80.88;103255.22;4897910;29;20214;-65
2024/01/09 09:58:16;;;;;;;1.05;0.95;;;;;;;-7.10;79.79;103254.94;4899012;29;20194;-65
2024/01/09 10:00:45;;;;;;;5.32;1.50;;;;;;;-7.06;78.79;103253.09;4899476;29;20227;-65
2024/01/09 10:03:20;;;;;;;1.48;1.38;;;;;;;-7.17;79.18;103249.84;4893763;29;20198;-66
2024/01/09 10:05:50;;;;;;;5.03;3.33;;;;;;;-7.27;79.61;103253.56;4891104;29;20713;-65
2024/01/09 10:08:22;;;;;;;0.82;0.63;;;;;;;-7.17;79.89;103255.97;4901310;29;20194;-65
2024/01/09 10:10:51;;;;;;;4.72;4.53;;;;;;;-7.00;78.44;103247.72;4895314;29;20688;-66
2024/01/09 10:13:22;;;;;;;4.53;2.97;;;;;;;-6.98;77.31;103245.91;4902165;29;20194;-65
2024/01/09 10:15:58;;;;;;;4.72;4.47;;;;;;;-6.98;78.42;103250.31;4901562;29;20235;-66
2024/01/09 10:18:32;;;;;;;3.35;3.15;;;;;;;-6.78;78.41;103251.63;4894307;29;20662;-66
2024/01/09 10:21:02;;;;;;;9.18;2.78;;;;;;;-6.75;77.83;103248.91;4893736;29;20216;-65
2024/01/09 10:23:32;;;;;;;1.27;1.17;;;;;;;-6.72;77.38;103254.09;4900770;29;20221;-65
2024/01/09 10:26:02;;;;;;;1.63;1.52;;;;;;;-6.74;77.23;103250.66;4893823;29;20230;-65
2024/01/09 10:28:31;;;;;;;1.77;1.67;;;;;;;-6.75;76.30;103242.78;4899336;29;20210;-66
2024/01/09 10:31:00;;;;;;;1.52;1.42;;;;;;;-6.78;76.15;103237.59;4902096;29;20209;-64
2024/01/09 10:33:31;;;;;;;3.50;3.20;;;;;;;-6.71;76.32;103240.03;4900097;29;20201;-64
2024/01/09 10:36:01;;;;;;;9.38;4.30;;;;;;;-6.51;75.84;103238.72;4899782;29;20697;-65
2024/01/09 10:38:32;;;;;;;4.38;3.78;;;;;;;-6.40;75.86;103236.69;4906978;29;20677;-64
2024/01/09 10:41:16;;;;;;;14.00;5.32;;;;;;;-6.27;73.94;103240.75;4903823;29;20827;-65
2024/01/09 10:43:45;;;;;;;4.85;4.45;;;;;;;-6.36;73.33;103230.44;4904078;29;20214;-65
2024/01/09 10:46:14;;;;;;;2.08;1.70;;;;;;;-6.30;74.12;103232.94;4910984;29;20218;-65
2024/01/09 10:48:44;;;;;;;2.78;2.13;;;;;;;-6.13;73.51;103230.75;4911784;29;20245;-64
2024/01/09 10:51:16;;;;;;;3.00;2.83;;;;;;;-6.17;73.41;103226.44;4902575;29;20202;-66
2024/01/09 10:53:48;;;;;;;4.05;3.58;;;;;;;-6.08;73.21;103234.13;4894647;29;20239;-66
2024/01/09 10:56:19;;;;;;;2.85;2.67;;;;;;;-6.00;73.77;103223.41;4911795;29;20577;-65
2024/01/09 10:58:49;;;;;;;2.13;1.13;;;;;;;-5.93;73.42;103223.19;4895590;29;20617;-65
2024/01/09 11:01:18;;;;;;;2.28;2.08;;;;;;;-5.86;72.80;103230.03;4891281;29;20203;-65
2024/01/09 11:03:48;;;;;;;2.55;2.45;;;;;;;-5.86;73.34;103224.75;4902265;29;20193;-65
2024/01/09 11:06:21;;;;;;;2.47;2.28;;;;;;;-5.65;72.17;103225.06;4900093;29;20249;-65
2024/01/09 11:08:58;;;;;;;4.53;4.28;;;;;;;-5.71;72.89;103229.59;4894128;29;20194;-65
2024/01/09 11:11:29;;;;;;;4.18;3.72;;;;;;;-5.80;72.95;103221.06;4906863;29;20222;-66
2024/01/09 11:14:03;;;;;;;1.70;1.60;;;;;;;-5.55;73.30;103223.91;4883415;29;20245;-66
2024/01/09 11:16:33;;;;;;;5.13;3.80;;;;;;;-5.46;73.20;103215.72;4888644;29;20225;-65
2024/01/09 11:19:07;;;;;;;3.58;2.42;;;;;;;-5.27;72.33;103222.19;4898103;29;20256;-66
2024/01/09 11:21:37;;;;;;;5.40;5.10;;;;;;;-5.26;72.01;103216.88;4903030;29;20280;-64
2024/01/09 11:24:08;;;;;;;3.55;3.13;;;;;;;-4.86;72.15;103213.06;4893935;29;20193;-65
2024/01/09 11:26:41;;;;;;;3.55;2.75;;;;;;;-4.85;70.98;103218.31;4898593;29;20229;-66
2024/01/09 11:29:13;;;;;;;2.33;2.13;;;;;;;-5.10;71.20;103214.69;4906259;29;20266;-66
2024/01/09 11:31:43;;;;;;;2.45;2.35;;;;;;;-5.16;71.41;103214.84;4901334;29;20205;-66
2024/01/09 11:34:27;;;;;;;3.40;2.78;;;;;;;-5.04;71.64;103216.28;4895806;29;20203;-66
2024/01/09 11:36:58;;;;;;;1.70;1.60;;;;;;;-4.80;70.78;103209.38;4893928;29;20237;-65